createdAt,value
2018-03-28T00:00:31.094Z,5.80
2018-03-28T00:02:58.524Z,5.80
2018-03-28T00:05:25.934Z,5.80
2018-03-28T00:07:53.359Z,5.80
2018-03-28T00:10:20.841Z,5.70
2018-03-28T00:12:48.288Z,5.80
2018-03-28T00:15:15.699Z,5.80
2018-03-28T00:17:43.131Z,5.80
2018-03-28T00:20:10.597Z,5.80
2018-03-28T00:22:38.808Z,5.80
2018-03-28T00:25:06.217Z,5.80
2018-03-28T00:27:34.432Z,5.80
2018-03-28T00:30:01.866Z,5.70
2018-03-28T00:32:29.269Z,5.80
2018-03-28T00:34:56.706Z,5.80
2018-03-28T00:37:24.893Z,5.80
2018-03-28T00:39:53.075Z,5.80
2018-03-28T00:42:20.547Z,5.80
2018-03-28T00:44:47.937Z,5.80
2018-03-28T00:47:15.346Z,5.80
2018-03-28T00:49:42.780Z,5.80
2018-03-28T00:52:10.186Z,5.70
2018-03-28T00:54:37.609Z,5.70
2018-03-28T00:57:05.808Z,5.70
2018-03-28T00:59:33.214Z,5.70
2018-03-28T01:02:00.642Z,5.70
2018-03-28T01:04:28.054Z,5.70
2018-03-28T01:06:55.494Z,5.70
2018-03-28T01:09:22.924Z,5.70
2018-03-28T01:11:50.341Z,5.60
2018-03-28T01:14:17.751Z,5.70
2018-03-28T01:16:45.979Z,5.70
2018-03-28T01:19:13.438Z,5.70
2018-03-28T01:21:40.875Z,5.60
2018-03-28T01:24:09.804Z,5.70
2018-03-28T01:26:37.231Z,5.70
2018-03-28T01:29:04.647Z,5.70
2018-03-28T01:31:32.463Z,5.70
2018-03-28T01:33:59.889Z,5.70
2018-03-28T01:36:27.328Z,5.70
2018-03-28T01:38:55.517Z,5.70
2018-03-28T01:41:22.926Z,5.70
2018-03-28T01:43:50.341Z,5.70
2018-03-28T01:46:17.763Z,5.70
2018-03-28T01:48:45.205Z,5.70
2018-03-28T01:51:12.651Z,5.70
2018-03-28T01:53:40.851Z,5.70
2018-03-28T01:56:09.030Z,5.70
2018-03-28T01:58:37.241Z,5.70
2018-03-28T02:01:04.657Z,5.70
2018-03-28T02:03:33.002Z,5.60
2018-03-28T02:06:00.438Z,5.60
2018-03-28T02:08:27.874Z,5.50
2018-03-28T02:10:55.330Z,5.50
2018-03-28T02:13:22.759Z,5.50
2018-03-28T02:15:50.167Z,5.50
2018-03-28T02:18:17.601Z,5.50
2018-03-28T02:20:45.844Z,5.50
2018-03-28T02:23:13.353Z,5.50
2018-03-28T02:25:41.529Z,5.60
2018-03-28T02:28:09.724Z,5.60
2018-03-28T02:30:37.944Z,5.60
2018-03-28T02:33:05.376Z,5.60
2018-03-28T02:35:34.178Z,5.50
2018-03-28T02:38:03.287Z,5.50
2018-03-28T02:40:31.500Z,5.50
2018-03-28T02:42:58.907Z,5.50
2018-03-28T02:45:26.371Z,5.50
2018-03-28T02:47:53.798Z,5.50
2018-03-28T02:50:21.981Z,5.50
2018-03-28T02:52:49.387Z,5.50
2018-03-28T02:55:16.819Z,5.50
2018-03-28T02:57:44.252Z,5.50
2018-03-28T03:00:11.666Z,5.50
2018-03-28T03:02:39.111Z,5.50
2018-03-28T03:05:07.323Z,5.40
2018-03-28T03:07:34.746Z,5.40
2018-03-28T03:10:03.868Z,5.40
2018-03-28T03:12:32.055Z,5.40
2018-03-28T03:15:00.244Z,5.40
2018-03-28T03:17:28.441Z,5.40
2018-03-28T03:19:55.858Z,5.40
2018-03-28T03:22:23.290Z,5.40
2018-03-28T03:24:50.730Z,5.40
2018-03-28T03:27:18.937Z,5.30
2018-03-28T03:29:46.370Z,5.30
2018-03-28T03:32:14.571Z,5.40
2018-03-28T03:34:42.769Z,5.40
2018-03-28T03:37:11.066Z,5.40
2018-03-28T03:39:38.529Z,5.40
2018-03-28T03:42:05.947Z,5.40
2018-03-28T03:44:33.362Z,5.40
2018-03-28T03:47:00.773Z,5.40
2018-03-28T03:49:28.188Z,5.40
2018-03-28T03:51:57.054Z,5.40
2018-03-28T03:54:24.492Z,5.30
2018-03-28T03:56:51.929Z,5.40
2018-03-28T03:59:20.126Z,5.30
2018-03-28T04:01:47.565Z,5.30
2018-03-28T04:04:15.762Z,5.30
2018-03-28T04:06:43.934Z,5.20
2018-03-28T04:09:11.374Z,5.30
2018-03-28T04:11:38.798Z,5.30
2018-03-28T04:14:06.268Z,5.30
2018-03-28T04:16:33.885Z,5.30
2018-03-28T04:19:01.310Z,5.30
2018-03-28T04:21:28.762Z,5.30
2018-03-28T04:23:56.164Z,5.20
2018-03-28T04:26:23.582Z,5.20
2018-03-28T04:28:51.003Z,5.20
2018-03-28T04:31:18.424Z,5.20
2018-03-28T04:33:45.841Z,5.20
2018-03-28T04:36:13.268Z,5.20
2018-03-28T04:38:41.451Z,5.20
2018-03-28T04:41:09.660Z,5.20
2018-03-28T04:43:37.135Z,5.20
2018-03-28T04:46:05.488Z,5.20
2018-03-28T04:48:32.935Z,5.20
2018-03-28T04:51:00.376Z,5.20
2018-03-28T04:53:27.794Z,5.20
2018-03-28T04:55:55.247Z,5.10
2018-03-28T04:58:22.688Z,5.10
2018-03-28T05:00:50.128Z,5.10
2018-03-28T05:03:17.558Z,5.10
2018-03-28T05:05:45.065Z,5.20
2018-03-28T05:08:13.350Z,5.20
2018-03-28T05:10:40.786Z,5.20
2018-03-28T05:13:08.238Z,5.30
2018-03-28T05:15:36.819Z,5.20
2018-03-28T05:18:04.996Z,5.20
2018-03-28T05:20:32.418Z,5.20
2018-03-28T05:23:00.629Z,5.30
2018-03-28T05:25:28.082Z,5.20
2018-03-28T05:27:56.359Z,5.20
2018-03-28T05:30:24.590Z,5.20
2018-03-28T05:32:52.008Z,5.20
2018-03-28T05:35:19.458Z,5.20
2018-03-28T05:37:46.857Z,5.20
2018-03-28T05:40:15.074Z,5.30
2018-03-28T05:42:42.503Z,5.20
2018-03-28T05:45:09.964Z,5.20
2018-03-28T05:47:37.360Z,5.20
2018-03-28T05:50:06.470Z,5.30
2018-03-28T05:52:33.949Z,5.30
2018-03-28T05:55:01.375Z,5.30
2018-03-28T05:57:28.907Z,5.30
2018-03-28T05:59:56.337Z,5.30
2018-03-28T06:02:24.546Z,5.30
2018-03-28T06:04:51.972Z,5.30
2018-03-28T06:07:19.450Z,5.40
2018-03-28T06:09:46.826Z,5.40
2018-03-28T06:12:15.009Z,5.40
2018-03-28T06:14:43.204Z,5.30
2018-03-28T06:17:11.433Z,5.20
2018-03-28T06:19:38.865Z,5.30
2018-03-28T06:22:07.654Z,5.30
2018-03-28T06:24:36.900Z,5.30
2018-03-28T06:27:04.310Z,5.30
2018-03-28T06:29:31.728Z,5.30
2018-03-28T06:31:59.187Z,5.40
2018-03-28T06:34:26.618Z,5.40
2018-03-28T06:36:54.817Z,5.40
2018-03-28T06:39:23.024Z,5.40
2018-03-28T06:41:50.442Z,5.40
2018-03-28T06:44:17.858Z,5.40
2018-03-28T06:46:45.278Z,5.40
2018-03-28T06:49:12.702Z,5.50
2018-03-28T06:51:40.130Z,5.50
2018-03-28T06:54:08.314Z,5.50
2018-03-28T06:56:35.753Z,5.50
2018-03-28T06:59:03.194Z,5.60
2018-03-28T07:01:30.618Z,5.50
2018-03-28T07:03:58.060Z,5.50
2018-03-28T07:06:25.452Z,5.50
2018-03-28T07:08:52.885Z,5.50
2018-03-28T07:11:20.305Z,5.50
2018-03-28T07:13:48.541Z,5.50
2018-03-28T07:16:15.990Z,5.50
2018-03-28T07:18:43.413Z,5.60
2018-03-28T07:21:12.377Z,5.60
2018-03-28T07:23:39.805Z,5.60
2018-03-28T07:26:08.592Z,5.70
2018-03-28T07:28:36.025Z,5.70
2018-03-28T07:31:03.453Z,5.70
2018-03-28T07:33:31.634Z,5.50
2018-03-28T07:35:59.820Z,5.60
2018-03-28T07:38:28.053Z,5.60
2018-03-28T07:40:55.494Z,5.60
2018-03-28T07:43:23.035Z,5.60
2018-03-28T07:45:50.451Z,5.70
2018-03-28T07:48:17.883Z,5.60
2018-03-28T07:50:46.101Z,5.60
2018-03-28T07:53:14.453Z,5.60
2018-03-28T07:55:41.868Z,5.60
2018-03-28T07:58:09.296Z,5.60
2018-03-28T08:00:36.723Z,5.60
2018-03-28T08:03:04.161Z,5.60
2018-03-28T08:05:31.573Z,5.70
2018-03-28T08:07:59.004Z,5.70
2018-03-28T08:10:26.617Z,5.60
2018-03-28T08:12:54.044Z,5.60
2018-03-28T08:15:21.483Z,5.60
2018-03-28T08:17:48.910Z,5.70
2018-03-28T08:20:16.349Z,5.80
2018-03-28T08:22:43.774Z,5.80
2018-03-28T08:25:11.285Z,5.80
2018-03-28T08:27:38.766Z,5.80
2018-03-28T08:30:06.193Z,5.80
2018-03-28T08:32:33.911Z,5.70
2018-03-28T08:35:01.371Z,5.70
2018-03-28T08:37:29.542Z,5.70
2018-03-28T08:39:57.039Z,5.70
2018-03-28T08:42:24.465Z,5.70
2018-03-28T08:44:52.670Z,5.70
2018-03-28T08:47:20.863Z,5.70
2018-03-28T08:49:48.302Z,5.70
2018-03-28T08:52:16.522Z,5.70
2018-03-28T08:54:43.937Z,5.70
2018-03-28T08:57:11.343Z,5.70
2018-03-28T08:59:40.533Z,5.90
2018-03-28T09:02:08.886Z,5.80
2018-03-28T09:04:36.306Z,5.90
2018-03-28T09:07:04.495Z,5.80
2018-03-28T09:09:32.681Z,5.80
2018-03-28T09:12:00.862Z,5.80
2018-03-28T09:14:29.078Z,5.90
2018-03-28T09:16:56.515Z,5.80
2018-03-28T09:19:24.712Z,5.70
2018-03-28T09:21:52.899Z,5.70
2018-03-28T09:24:21.080Z,5.70
2018-03-28T09:26:49.262Z,5.70
2018-03-28T09:29:17.448Z,5.80
2018-03-28T09:31:45.669Z,5.80
2018-03-28T09:34:13.130Z,5.80
2018-03-28T09:36:40.642Z,5.80
2018-03-28T09:39:08.247Z,5.80
2018-03-28T09:41:36.457Z,5.90
2018-03-28T09:44:03.915Z,5.90
2018-03-28T09:46:31.346Z,5.90
2018-03-28T09:48:58.814Z,5.90
2018-03-28T09:51:26.244Z,5.90
2018-03-28T09:53:53.697Z,5.90
2018-03-28T09:56:21.863Z,5.90
2018-03-28T09:58:50.058Z,5.80
2018-03-28T10:01:23.154Z,5.80
2018-03-28T10:03:51.328Z,5.80
2018-03-28T10:06:19.522Z,5.80
2018-03-28T10:08:48.685Z,5.70
2018-03-28T10:11:15.165Z,5.70
2018-03-28T10:13:43.366Z,5.90
2018-03-28T10:16:11.543Z,6.00
2018-03-28T10:18:40.697Z,6.00
2018-03-28T10:21:08.138Z,6.00
2018-03-28T10:23:35.573Z,6.10
2018-03-28T10:26:02.994Z,6.10
2018-03-28T10:28:30.406Z,5.90
2018-03-28T10:30:57.841Z,5.90
2018-03-28T10:33:25.257Z,6.00
2018-03-28T10:35:52.691Z,6.00
2018-03-28T10:38:20.112Z,6.00
2018-03-28T10:40:47.530Z,6.10
2018-03-28T10:43:14.951Z,6.10
2018-03-28T10:45:42.737Z,6.10
2018-03-28T10:48:11.114Z,6.00
2018-03-28T10:50:38.576Z,5.90
2018-03-28T10:53:06.778Z,6.00
2018-03-28T10:55:34.227Z,6.00
2018-03-28T10:58:02.411Z,6.00
2018-03-28T11:00:30.599Z,6.10
2018-03-28T11:02:58.811Z,6.20
2018-03-28T11:05:26.230Z,6.20
2018-03-28T11:07:53.645Z,6.20
2018-03-28T11:10:21.174Z,6.10
2018-03-28T11:12:48.602Z,6.00
2018-03-28T11:15:16.038Z,6.00
2018-03-28T11:17:44.217Z,5.90
2018-03-28T11:20:12.425Z,5.90
2018-03-28T11:22:40.790Z,5.90
2018-03-28T11:25:08.986Z,5.90
2018-03-28T11:27:37.182Z,5.90
2018-03-28T11:30:04.765Z,5.80
2018-03-28T11:32:32.230Z,5.90
2018-03-28T11:34:59.626Z,5.90
2018-03-28T11:37:27.061Z,5.90
2018-03-28T11:39:54.469Z,5.90
2018-03-28T11:42:21.900Z,5.90
2018-03-28T11:44:49.305Z,6.00
2018-03-28T11:47:16.731Z,6.00
2018-03-28T11:49:44.205Z,6.00
2018-03-28T11:52:11.681Z,6.00
2018-03-28T11:54:39.102Z,6.00
2018-03-28T11:57:06.589Z,6.00
2018-03-28T11:59:34.047Z,6.10
2018-03-28T12:02:02.231Z,6.40
2018-03-28T12:04:30.441Z,6.50
2018-03-28T12:06:57.938Z,6.50
2018-03-28T12:09:25.331Z,6.50
2018-03-28T12:11:54.273Z,6.60
2018-03-28T12:14:22.458Z,6.70
2018-03-28T12:16:50.641Z,6.80
2018-03-28T12:19:18.857Z,7.00
2018-03-28T12:21:46.294Z,6.90
2018-03-28T12:24:14.473Z,7.10
2018-03-28T12:26:41.919Z,7.10
2018-03-28T12:29:09.322Z,7.00
2018-03-28T12:31:37.524Z,7.00
2018-03-28T12:34:04.940Z,6.90
2018-03-28T12:36:32.389Z,6.90
2018-03-28T12:38:59.813Z,6.90
2018-03-28T12:41:28.028Z,7.00
2018-03-28T12:43:55.462Z,6.90
2018-03-28T12:46:23.671Z,6.90
2018-03-28T12:48:51.158Z,6.90
2018-03-28T12:51:18.574Z,7.00
2018-03-28T12:53:46.813Z,7.10
2018-03-28T12:56:14.227Z,7.10
2018-03-28T12:58:42.962Z,7.20
2018-03-28T13:01:12.070Z,7.30
2018-03-28T13:03:39.500Z,7.30
2018-03-28T13:06:06.928Z,7.30
2018-03-28T13:08:34.370Z,7.20
2018-03-28T13:11:01.872Z,7.20
2018-03-28T13:13:29.999Z,7.10
2018-03-28T13:15:58.252Z,7.10
2018-03-28T13:18:25.659Z,7.10
2018-03-28T13:20:53.856Z,7.20
2018-03-28T13:23:22.048Z,7.20
2018-03-28T13:25:50.220Z,7.20
2018-03-28T13:28:26.108Z,7.20
2018-03-28T13:30:53.521Z,7.20
2018-03-28T13:33:21.053Z,7.30
2018-03-28T13:35:48.489Z,7.20
2018-03-28T13:38:16.697Z,7.30
2018-03-28T13:40:44.131Z,7.30
2018-03-28T13:43:11.544Z,7.20
2018-03-28T13:45:38.966Z,7.20
2018-03-28T13:48:07.142Z,7.30
2018-03-28T13:50:34.571Z,7.20
2018-03-28T13:53:02.057Z,7.30
2018-03-28T13:55:29.461Z,7.30
2018-03-28T13:57:57.635Z,7.30
2018-03-28T14:00:25.066Z,7.30
2018-03-28T14:02:52.471Z,7.20
2018-03-28T14:05:19.883Z,7.20
2018-03-28T14:07:48.179Z,7.20
2018-03-28T14:10:15.609Z,7.10
2018-03-28T14:12:43.943Z,7.10
2018-03-28T14:15:11.402Z,7.10
2018-03-28T14:17:38.842Z,7.10
2018-03-28T14:20:07.061Z,7.10
2018-03-28T14:22:34.468Z,7.10
2018-03-28T14:25:01.912Z,7.10
2018-03-28T14:27:29.318Z,7.10
2018-03-28T14:29:58.266Z,7.00
2018-03-28T14:32:25.668Z,7.00
2018-03-28T14:34:53.102Z,7.10
2018-03-28T14:37:20.542Z,7.00
2018-03-28T14:39:48.757Z,7.00
2018-03-28T14:42:16.166Z,7.00
2018-03-28T14:44:43.626Z,6.90
2018-03-28T14:47:11.057Z,6.80
2018-03-28T14:49:38.485Z,6.70
2018-03-28T14:52:05.904Z,6.70
2018-03-28T14:54:33.356Z,6.70
2018-03-28T14:57:00.777Z,6.70
2018-03-28T14:59:28.203Z,6.70
2018-03-28T15:01:55.611Z,6.70
2018-03-28T15:04:23.034Z,6.70
2018-03-28T15:06:50.459Z,6.70
2018-03-28T15:09:17.934Z,6.60
2018-03-28T15:11:45.339Z,6.60
2018-03-28T15:14:12.802Z,6.60
2018-03-28T15:16:41.007Z,6.60
2018-03-28T15:19:08.478Z,6.60
2018-03-28T15:21:35.916Z,6.60
2018-03-28T15:24:04.115Z,6.60
2018-03-28T15:26:32.285Z,6.50
2018-03-28T15:29:00.500Z,6.50
2018-03-28T15:31:27.923Z,6.50
2018-03-28T15:33:55.368Z,6.50
2018-03-28T15:36:22.794Z,6.50
2018-03-28T15:38:50.233Z,6.40
2018-03-28T15:41:18.435Z,6.30
2018-03-28T15:43:46.670Z,6.40
2018-03-28T15:46:14.510Z,6.40
2018-03-28T15:48:41.946Z,6.40
2018-03-28T15:51:10.363Z,6.30
2018-03-28T15:53:37.830Z,6.30
2018-03-28T15:56:05.249Z,6.30
2018-03-28T15:58:32.668Z,6.30
2018-03-28T16:01:00.083Z,6.30
2018-03-28T16:03:27.508Z,6.20
2018-03-28T16:05:54.930Z,6.10
2018-03-28T16:08:22.353Z,6.20
2018-03-28T16:10:49.770Z,6.20
2018-03-28T16:13:17.308Z,6.10
2018-03-28T16:15:45.585Z,6.10
2018-03-28T16:18:13.004Z,6.00
2018-03-28T16:20:40.423Z,6.00
2018-03-28T16:23:07.881Z,6.00
2018-03-28T16:25:35.357Z,6.00
2018-03-28T16:28:02.806Z,6.00
2018-03-28T16:30:30.227Z,5.90
2018-03-28T16:32:57.654Z,6.00
2018-03-28T16:35:25.123Z,5.90
2018-03-28T16:37:52.551Z,5.90
2018-03-28T16:40:20.004Z,5.90
2018-03-28T16:42:47.443Z,5.90
2018-03-28T16:45:16.003Z,5.90
2018-03-28T16:47:45.114Z,5.90
2018-03-28T16:50:13.314Z,6.00
2018-03-28T16:52:40.818Z,6.00
2018-03-28T16:55:08.278Z,6.00
2018-03-28T16:57:35.694Z,6.00
2018-03-28T17:00:03.884Z,5.90
2018-03-28T17:02:32.064Z,5.90
2018-03-28T17:04:59.486Z,5.90
2018-03-28T17:07:26.935Z,5.90
2018-03-28T17:09:55.112Z,5.80
2018-03-28T17:12:22.551Z,5.80
2018-03-28T17:14:49.965Z,5.90
2018-03-28T17:17:17.419Z,5.90
2018-03-28T17:19:46.425Z,5.80
2018-03-28T17:22:13.852Z,5.80
2018-03-28T17:24:41.295Z,5.80
2018-03-28T17:27:09.100Z,5.80
2018-03-28T17:29:36.618Z,5.80
2018-03-28T17:32:04.042Z,5.80
2018-03-28T17:34:31.517Z,5.70
2018-03-28T17:36:58.934Z,5.70
2018-03-28T17:39:26.361Z,5.80
2018-03-28T17:41:54.559Z,5.70
2018-03-28T17:44:21.969Z,5.70
2018-03-28T17:46:49.395Z,5.70
2018-03-28T17:49:16.812Z,5.70
2018-03-28T17:51:44.258Z,5.70
2018-03-28T17:54:11.698Z,5.70
2018-03-28T17:56:39.887Z,5.70
2018-03-28T17:59:07.336Z,5.70
2018-03-28T18:01:34.760Z,5.70
2018-03-28T18:04:02.188Z,5.60
2018-03-28T18:06:29.590Z,5.50
2018-03-28T18:08:57.022Z,5.70
2018-03-28T18:11:24.442Z,5.60
2018-03-28T18:13:51.857Z,5.60
2018-03-28T18:16:20.038Z,5.50
2018-03-28T18:18:47.465Z,5.50
2018-03-28T18:21:14.919Z,5.50
2018-03-28T18:23:42.351Z,5.40
2018-03-28T18:26:10.610Z,5.40
2018-03-28T18:28:38.064Z,5.40
2018-03-28T18:31:05.466Z,5.40
2018-03-28T18:33:33.672Z,5.40
2018-03-28T18:36:01.997Z,5.40
2018-03-28T18:38:29.407Z,5.40
2018-03-28T18:40:56.840Z,5.40
2018-03-28T18:43:24.255Z,5.30
2018-03-28T18:45:52.450Z,5.40
2018-03-28T18:48:20.647Z,5.40
2018-03-28T18:50:48.052Z,5.20
2018-03-28T18:53:15.502Z,5.30
2018-03-28T18:55:42.938Z,5.30
2018-03-28T18:58:11.722Z,5.30
2018-03-28T19:00:39.958Z,5.30
2018-03-28T19:03:07.394Z,5.30
2018-03-28T19:05:34.840Z,5.20
2018-03-28T19:08:02.321Z,5.20
2018-03-28T19:10:29.697Z,5.20
2018-03-28T19:12:57.883Z,5.30
2018-03-28T19:15:25.306Z,5.30
2018-03-28T19:17:52.770Z,5.30
2018-03-28T19:20:20.204Z,5.30
2018-03-28T19:22:47.622Z,5.20
2018-03-28T19:25:15.151Z,5.20
2018-03-28T19:27:42.571Z,5.20
2018-03-28T19:30:10.779Z,5.20
2018-03-28T19:32:38.989Z,5.20
2018-03-28T19:35:06.399Z,5.10
2018-03-28T19:37:33.925Z,5.20
2018-03-28T19:40:01.370Z,5.10
2018-03-28T19:42:28.794Z,5.20
2018-03-28T19:44:56.210Z,5.10
2018-03-28T19:47:23.630Z,5.10
2018-03-28T19:49:51.074Z,5.10
2018-03-28T19:52:18.490Z,5.10
2018-03-28T19:54:46.687Z,5.20
2018-03-28T19:57:14.864Z,5.20
2018-03-28T19:59:43.070Z,5.20
2018-03-28T20:02:11.267Z,5.10
2018-03-28T20:04:38.697Z,5.10
2018-03-28T20:07:06.238Z,5.00
2018-03-28T20:09:33.662Z,5.00
2018-03-28T20:12:01.844Z,5.00
2018-03-28T20:14:30.034Z,5.00
2018-03-28T20:16:57.470Z,5.00
2018-03-28T20:19:24.898Z,5.00
2018-03-28T20:21:52.334Z,5.00
2018-03-28T20:24:20.536Z,5.00
2018-03-28T20:26:49.310Z,5.00
2018-03-28T20:29:18.405Z,5.00
2018-03-28T20:31:45.851Z,5.00
2018-03-28T20:34:13.274Z,5.00
2018-03-28T20:36:40.697Z,5.00
2018-03-28T20:39:08.116Z,5.00
2018-03-28T20:41:35.546Z,5.00
2018-03-28T20:44:02.957Z,5.00
2018-03-28T20:46:30.380Z,4.90
2018-03-28T20:48:57.804Z,4.90
2018-03-28T20:51:25.257Z,5.00
2018-03-28T20:53:52.746Z,5.00
2018-03-28T20:56:20.176Z,5.00
2018-03-28T20:58:49.278Z,5.00
2018-03-28T21:01:17.496Z,5.00
2018-03-28T21:03:44.962Z,4.90
2018-03-28T21:06:12.402Z,5.00
2018-03-28T21:08:39.809Z,5.00
2018-03-28T21:11:07.231Z,5.10
2018-03-28T21:13:34.727Z,5.10
2018-03-28T21:16:02.146Z,5.00
2018-03-28T21:18:29.558Z,5.00
2018-03-28T21:20:56.991Z,5.00
2018-03-28T21:23:24.520Z,5.00
2018-03-28T21:25:51.921Z,5.00
2018-03-28T21:28:19.356Z,5.00
2018-03-28T21:30:46.856Z,5.00
2018-03-28T21:33:14.264Z,5.00
2018-03-28T21:35:42.467Z,5.10
2018-03-28T21:38:09.916Z,5.10
2018-03-28T21:40:38.096Z,5.10
2018-03-28T21:43:05.514Z,5.10
2018-03-28T21:45:32.919Z,5.10
2018-03-28T21:48:00.359Z,5.10
2018-03-28T21:50:27.769Z,5.10
2018-03-28T21:52:55.970Z,5.10
2018-03-28T21:55:24.150Z,5.10
2018-03-28T21:57:53.305Z,5.10
2018-03-28T22:00:20.782Z,5.10
2018-03-28T22:02:48.194Z,5.10
2018-03-28T22:05:16.401Z,5.10
2018-03-28T22:07:43.850Z,5.10
2018-03-28T22:10:11.260Z,5.20
2018-03-28T22:12:38.695Z,5.20
2018-03-28T22:15:06.110Z,5.20
2018-03-28T22:17:33.548Z,5.20
2018-03-28T22:20:00.962Z,5.20
2018-03-28T22:22:28.562Z,5.30
2018-03-28T22:24:56.734Z,5.40
2018-03-28T22:27:24.962Z,5.40
2018-03-28T22:29:52.391Z,5.40
2018-03-28T22:32:21.109Z,5.50
2018-03-28T22:34:50.206Z,5.50
2018-03-28T22:37:17.627Z,5.50
2018-03-28T22:39:45.055Z,5.60
2018-03-28T22:42:12.478Z,5.60
2018-03-28T22:44:39.931Z,5.70
2018-03-28T22:47:07.343Z,5.90
2018-03-28T22:49:35.535Z,6.00
2018-03-28T22:52:03.709Z,6.00
2018-03-28T22:54:31.898Z,6.10
2018-03-28T22:57:00.137Z,6.10
2018-03-28T22:59:27.546Z,6.10
2018-03-28T23:01:55.733Z,6.20
2018-03-28T23:04:23.174Z,6.20
2018-03-28T23:06:51.803Z,6.30
2018-03-28T23:09:20.914Z,6.30
2018-03-28T23:11:49.090Z,6.20
2018-03-28T23:14:16.595Z,6.20
2018-03-28T23:16:44.003Z,6.20
2018-03-28T23:19:11.434Z,6.20
2018-03-28T23:21:38.865Z,6.20
2018-03-28T23:24:06.270Z,6.20
2018-03-28T23:26:33.793Z,6.20
2018-03-28T23:29:01.204Z,6.20
2018-03-28T23:31:28.634Z,6.20
2018-03-28T23:33:56.051Z,6.20
2018-03-28T23:36:23.474Z,6.10
2018-03-28T23:38:52.403Z,6.00
2018-03-28T23:41:19.824Z,6.00
2018-03-28T23:43:47.253Z,6.00
2018-03-28T23:46:14.675Z,5.90
2018-03-28T23:48:42.114Z,5.90
2018-03-28T23:51:09.533Z,5.80
2018-03-28T23:53:37.721Z,5.70
2018-03-28T23:56:05.900Z,5.60
2018-03-28T23:58:34.079Z,5.60
